Time;durP1;ratioP1;P1;durP2;ratioP2;P2;SDS_P1;SDS_P2;PMS_P1;PMS_P2;Temp;Humidity;BMP_temperature;BMP_pressure;BME280_temperature;BME280_humidity;BME280_pressure;Samples;Min_cycle;Max_cycle;Signal;HPM_P1;HPM_P2
2021/06/15 00:02:49;;;;;;;17.3;15.5;;;;;;;21.8;48.7;101720;;;;
2021/06/15 00:04:49;;;;;;;17.3;15.5;;;;;;;21.9;48.0;101720;;;;
2021/06/15 00:06:49;;;;;;;15.1;13.6;;;;;;;22.0;46.9;101720;;;;
2021/06/15 00:10:49;;;;;;;15.1;13.6;;;;;;;21.7;48.7;101720;;;;
2021/06/15 00:24:49;;;;;;;15.1;13.6;;;;;;;21.8;48.0;101720;;;;
2021/06/15 00:28:49;;;;;;;16.1;14.2;;;;;;;21.6;48.1;101720;;;;
2021/06/15 00:34:49;;;;;;;16.1;14.2;;;;;;;21.5;50.7;101730;;;;
2021/06/15 00:36:49;;;;;;;16.1;14.2;;;;;;;21.6;48.3;101730;;;;
2021/06/15 00:38:49;;;;;;;16.1;14.2;;;;;;;21.4;52.1;101720;;;;
2021/06/15 00:42:49;;;;;;;16.1;14.2;;;;;;;21.3;50.4;101720;;;;
2021/06/15 00:44:49;;;;;;;16.1;14.2;;;;;;;21.4;49.9;101720;;;;
2021/06/15 00:46:49;;;;;;;16.1;14.4;;;;;;;21.6;48.6;101720;;;;
2021/06/15 00:48:49;;;;;;;16.1;14.4;;;;;;;21.2;50.2;101720;;;;
2021/06/15 00:50:49;;;;;;;16.1;14.4;;;;;;;21.3;48.8;101720;;;;
2021/06/15 00:56:49;;;;;;;16.1;14.4;;;;;;;21.2;49.9;101730;;;;
2021/06/15 01:04:49;;;;;;;16.1;14.4;;;;;;;21.1;50.7;101740;;;;
2021/06/15 01:06:49;;;;;;;16.3;14.7;;;;;;;21.0;52.0;101740;;;;
2021/06/15 01:14:49;;;;;;;16.3;14.7;;;;;;;21.1;49.3;101740;;;;
2021/06/15 01:18:49;;;;;;;16.3;14.7;;;;;;;21.0;51.8;101740;;;;
2021/06/15 01:20:49;;;;;;;16.3;14.7;;;;;;;20.9;49.8;101740;;;;
2021/06/15 01:22:50;;;;;;;16.3;14.7;;;;;;;21.0;50.4;101740;;;;
2021/06/15 01:24:49;;;;;;;16.3;14.7;;;;;;;20.8;50.0;101740;;;;
2021/06/15 01:26:49;;;;;;;15.3;13.7;;;;;;;21.0;49.8;101740;;;;
2021/06/15 01:28:49;;;;;;;15.3;13.7;;;;;;;20.9;50.8;101740;;;;
2021/06/15 01:30:49;;;;;;;15.3;13.7;;;;;;;20.8;49.8;101740;;;;
2021/06/15 01:32:49;;;;;;;15.3;13.7;;;;;;;20.6;51.7;101740;;;;
2021/06/15 01:34:49;;;;;;;15.3;13.7;;;;;;;20.7;51.7;101740;;;;
2021/06/15 01:40:49;;;;;;;15.3;13.7;;;;;;;20.6;52.7;101750;;;;
2021/06/15 01:44:49;;;;;;;15.3;13.7;;;;;;;20.7;50.4;101750;;;;
2021/06/15 01:50:49;;;;;;;14.6;13.1;;;;;;;20.6;50.8;101760;;;;
2021/06/15 01:58:49;;;;;;;14.6;13.1;;;;;;;20.5;50.5;101770;;;;
2021/06/15 02:02:49;;;;;;;14.6;13.1;;;;;;;20.4;50.1;101770;;;;
2021/06/15 02:06:49;;;;;;;14.3;12.2;;;;;;;20.5;51.3;101780;;;;
2021/06/15 02:08:49;;;;;;;14.3;12.2;;;;;;;20.4;51.3;101780;;;;
2021/06/15 02:10:49;;;;;;;14.3;12.2;;;;;;;20.2;52.1;101780;;;;
2021/06/15 02:12:49;;;;;;;14.3;12.2;;;;;;;20.3;51.4;101780;;;;
2021/06/15 02:14:50;;;;;;;14.3;12.2;;;;;;;20.2;51.1;101780;;;;
2021/06/15 02:16:49;;;;;;;14.3;12.2;;;;;;;20.4;50.3;101780;;;;
2021/06/15 02:18:49;;;;;;;14.3;12.2;;;;;;;20.3;51.1;101790;;;;
2021/06/15 02:20:49;;;;;;;14.3;12.2;;;;;;;20.4;51.0;101790;;;;
2021/06/15 02:22:49;;;;;;;14.3;12.2;;;;;;;20.3;49.5;101780;;;;
2021/06/15 02:26:49;;;;;;;13.1;11.9;;;;;;;20.2;51.6;101790;;;;
2021/06/15 02:28:49;;;;;;;13.1;11.9;;;;;;;20.3;51.9;101790;;;;
2021/06/15 02:34:49;;;;;;;13.1;11.9;;;;;;;20.1;53.7;101790;;;;
2021/06/15 02:38:49;;;;;;;13.1;11.9;;;;;;;20.0;52.1;101800;;;;
2021/06/15 02:42:50;;;;;;;13.1;11.9;;;;;;;19.9;51.6;101790;;;;
2021/06/15 02:48:49;;;;;;;12.1;10.9;;;;;;;19.8;52.7;101800;;;;
2021/06/15 02:50:49;;;;;;;12.1;10.9;;;;;;;20.0;51.6;101790;;;;
2021/06/15 02:52:49;;;;;;;12.1;10.9;;;;;;;19.9;51.9;101790;;;;
2021/06/15 02:54:49;;;;;;;12.1;10.9;;;;;;;20.0;51.0;101790;;;;
2021/06/15 02:56:49;;;;;;;12.1;10.9;;;;;;;19.9;50.5;101790;;;;
2021/06/15 02:58:49;;;;;;;12.1;10.9;;;;;;;20.0;50.4;101790;;;;
2021/06/15 03:02:49;;;;;;;12.1;10.9;;;;;;;19.8;51.1;101790;;;;
2021/06/15 03:06:49;;;;;;;10.5;9.4;;;;;;;19.6;54.1;101790;;;;
2021/06/15 03:08:49;;;;;;;10.5;9.4;;;;;;;19.7;52.7;101790;;;;
2021/06/15 03:12:49;;;;;;;10.5;9.4;;;;;;;19.5;53.6;101790;;;;
2021/06/15 03:14:49;;;;;;;10.5;9.4;;;;;;;19.6;50.8;101800;;;;
2021/06/15 03:16:49;;;;;;;10.5;9.4;;;;;;;19.7;52.0;101800;;;;
2021/06/15 03:20:49;;;;;;;10.5;9.4;;;;;;;19.8;51.2;101800;;;;
2021/06/15 03:22:49;;;;;;;10.5;9.4;;;;;;;19.7;51.6;101800;;;;
2021/06/15 03:24:49;;;;;;;10.5;9.4;;;;;;;19.8;50.5;101810;;;;
2021/06/15 03:42:49;;;;;;;9.4;8.4;;;;;;;19.7;50.8;101820;;;;
2021/06/15 03:44:49;;;;;;;9.4;8.4;;;;;;;19.6;52.7;101820;;;;
2021/06/15 03:46:49;;;;;;;9.9;8.9;;;;;;;19.7;51.0;101820;;;;
2021/06/15 03:48:49;;;;;;;9.9;8.9;;;;;;;19.8;51.1;101820;;;;
2021/06/15 03:52:49;;;;;;;9.9;8.9;;;;;;;19.6;52.2;101820;;;;
2021/06/15 03:54:49;;;;;;;9.9;8.9;;;;;;;19.7;51.6;101830;;;;
2021/06/15 03:56:49;;;;;;;9.9;8.9;;;;;;;19.8;52.7;101830;;;;
2021/06/15 03:58:49;;;;;;;9.9;8.9;;;;;;;19.6;52.0;101830;;;;
2021/06/15 04:02:49;;;;;;;9.9;8.9;;;;;;;19.7;52.2;101840;;;;
2021/06/15 04:06:50;;;;;;;10.5;9.4;;;;;;;19.9;50.5;101850;;;;
2021/06/15 04:08:49;;;;;;;10.5;9.4;;;;;;;19.8;51.4;101850;;;;
2021/06/15 04:14:49;;;;;;;10.5;9.4;;;;;;;19.7;53.8;101840;;;;
2021/06/15 04:16:49;;;;;;;10.5;9.4;;;;;;;19.8;52.8;101850;;;;
2021/06/15 04:18:49;;;;;;;10.5;9.4;;;;;;;19.7;52.5;101850;;;;
2021/06/15 04:22:49;;;;;;;10.5;9.4;;;;;;;19.5;53.8;101850;;;;
2021/06/15 04:26:49;;;;;;;9.2;8.3;;;;;;;19.7;53.6;101840;;;;
2021/06/15 04:30:49;;;;;;;9.2;8.3;;;;;;;19.6;52.7;101840;;;;
2021/06/15 04:34:49;;;;;;;9.2;8.3;;;;;;;19.5;54.0;101840;;;;
2021/06/15 04:38:49;;;;;;;9.2;8.3;;;;;;;19.3;54.5;101840;;;;
2021/06/15 04:40:49;;;;;;;9.2;8.3;;;;;;;19.5;52.7;101830;;;;
2021/06/15 04:44:49;;;;;;;9.2;8.3;;;;;;;19.3;53.5;101840;;;;
2021/06/15 04:46:49;;;;;;;8.4;6.9;;;;;;;19.2;53.7;101830;;;;
2021/06/15 04:48:49;;;;;;;8.4;6.9;;;;;;;19.1;54.2;101830;;;;
2021/06/15 04:50:49;;;;;;;8.4;6.9;;;;;;;19.4;53.8;101830;;;;
2021/06/15 04:54:49;;;;;;;8.4;6.9;;;;;;;19.5;53.5;101830;;;;
2021/06/15 04:58:49;;;;;;;8.4;6.9;;;;;;;19.6;52.5;101840;;;;
2021/06/15 05:00:49;;;;;;;8.4;6.9;;;;;;;19.7;52.5;101840;;;;
2021/06/15 05:02:49;;;;;;;8.4;6.9;;;;;;;19.5;53.9;101840;;;;
2021/06/15 05:08:49;;;;;;;9.8;6.9;;;;;;;19.7;51.8;101850;;;;
2021/06/15 05:10:49;;;;;;;9.8;6.9;;;;;;;19.8;51.2;101850;;;;
2021/06/15 05:12:49;;;;;;;9.8;6.9;;;;;;;19.7;51.8;101860;;;;
2021/06/15 05:20:49;;;;;;;9.8;6.9;;;;;;;19.8;52.2;101870;;;;
2021/06/15 05:24:49;;;;;;;9.8;6.9;;;;;;;19.9;51.0;101870;;;;
2021/06/15 05:26:49;;;;;;;6.6;5.9;;;;;;;20.1;49.5;101880;;;;
2021/06/15 05:28:50;;;;;;;6.6;5.9;;;;;;;19.8;51.8;101880;;;;
2021/06/15 05:32:49;;;;;;;6.6;5.9;;;;;;;19.9;51.9;101880;;;;
2021/06/15 05:34:49;;;;;;;6.6;5.9;;;;;;;19.7;52.1;101880;;;;
2021/06/15 05:36:49;;;;;;;6.6;5.9;;;;;;;19.9;51.4;101880;;;;
2021/06/15 05:38:49;;;;;;;6.6;5.9;;;;;;;19.6;52.3;101880;;;;
2021/06/15 05:40:49;;;;;;;6.6;5.9;;;;;;;19.5;53.0;101890;;;;
2021/06/15 05:42:49;;;;;;;6.6;5.9;;;;;;;19.8;52.0;101900;;;;
2021/06/15 05:44:49;;;;;;;6.6;5.9;;;;;;;19.9;50.7;101900;;;;
2021/06/15 05:46:49;;;;;;;6.9;5.9;;;;;;;20.0;51.4;101900;;;;
2021/06/15 05:50:49;;;;;;;6.9;5.9;;;;;;;19.9;53.3;101900;;;;
2021/06/15 05:54:49;;;;;;;6.9;5.9;;;;;;;20.0;51.5;101890;;;;
2021/06/15 05:58:49;;;;;;;6.9;5.9;;;;;;;20.1;50.2;101890;;;;
2021/06/15 06:02:50;;;;;;;6.9;5.9;;;;;;;20.2;50.3;101890;;;;
2021/06/15 06:05:03;;;;;;;6.9;5.9;;;;;;;20.3;49.2;101900;;;;
2021/06/15 06:12:49;;;;;;;7.3;5.5;;;;;;;20.4;49.2;101890;;;;
2021/06/15 06:14:49;;;;;;;7.3;5.5;;;;;;;20.6;49.1;101890;;;;
2021/06/15 06:16:49;;;;;;;7.3;5.5;;;;;;;20.5;50.1;101890;;;;
2021/06/15 06:18:49;;;;;;;7.3;5.5;;;;;;;20.4;49.5;101900;;;;
2021/06/15 06:22:49;;;;;;;7.3;5.5;;;;;;;20.3;50.1;101900;;;;
2021/06/15 06:24:49;;;;;;;7.3;5.5;;;;;;;20.2;49.5;101900;;;;
2021/06/15 06:30:49;;;;;;;6.4;4.9;;;;;;;20.1;49.8;101900;;;;
2021/06/15 06:32:49;;;;;;;6.4;4.9;;;;;;;20.2;49.7;101900;;;;
2021/06/15 06:34:49;;;;;;;6.4;4.9;;;;;;;20.0;49.9;101910;;;;
2021/06/15 06:36:49;;;;;;;6.4;4.9;;;;;;;20.1;48.3;101910;;;;
2021/06/15 06:40:49;;;;;;;6.4;4.9;;;;;;;20.3;48.4;101900;;;;
2021/06/15 06:42:49;;;;;;;6.4;4.9;;;;;;;20.4;48.1;101910;;;;
2021/06/15 06:46:49;;;;;;;6.4;3.7;;;;;;;20.3;47.2;101920;;;;
2021/06/15 06:56:49;;;;;;;6.4;3.7;;;;;;;20.5;46.6;101920;;;;
2021/06/15 06:58:49;;;;;;;6.4;3.7;;;;;;;20.6;46.4;101920;;;;
2021/06/15 07:00:49;;;;;;;6.4;3.7;;;;;;;20.7;45.8;101930;;;;
2021/06/15 07:02:49;;;;;;;6.4;3.7;;;;;;;20.8;45.7;101930;;;;
2021/06/15 07:06:49;;;;;;;4.6;3.2;;;;;;;20.7;46.2;101930;;;;
2021/06/15 07:12:50;;;;;;;4.6;3.2;;;;;;;20.5;46.3;101930;;;;
2021/06/15 07:14:49;;;;;;;4.6;3.2;;;;;;;20.6;46.0;101930;;;;
2021/06/15 07:16:49;;;;;;;4.6;3.2;;;;;;;20.7;45.9;101940;;;;
2021/06/15 07:18:50;;;;;;;4.6;3.2;;;;;;;20.6;45.3;101940;;;;
2021/06/15 07:22:49;;;;;;;4.6;3.2;;;;;;;20.8;45.2;101940;;;;
2021/06/15 07:26:49;;;;;;;5.2;2.5;;;;;;;20.9;44.8;101950;;;;
2021/06/15 07:28:49;;;;;;;5.2;2.5;;;;;;;21.2;44.3;101950;;;;
2021/06/15 07:30:50;;;;;;;5.2;2.5;;;;;;;21.3;44.3;101940;;;;
2021/06/15 07:32:50;;;;;;;5.2;2.5;;;;;;;21.4;44.4;101940;;;;
2021/06/15 07:34:49;;;;;;;5.2;2.5;;;;;;;21.3;44.4;101940;;;;
2021/06/15 07:38:51;;;;;;;5.2;2.5;;;;;;;21.5;43.9;101940;;;;
2021/06/15 07:40:49;;;;;;;5.2;2.5;;;;;;;21.6;43.7;101940;;;;
2021/06/15 07:42:49;;;;;;;5.2;2.5;;;;;;;21.5;43.1;101950;;;;
2021/06/15 07:44:49;;;;;;;5.2;2.5;;;;;;;21.7;43.3;101950;;;;
2021/06/15 07:46:49;;;;;;;5.1;3.0;;;;;;;21.9;43.0;101940;;;;
2021/06/15 07:48:51;;;;;;;5.1;3.0;;;;;;;21.8;42.8;101950;;;;
2021/06/15 07:50:49;;;;;;;5.1;3.0;;;;;;;21.7;42.3;101950;;;;
2021/06/15 07:52:49;;;;;;;5.1;3.0;;;;;;;21.8;42.7;101940;;;;
2021/06/15 07:54:49;;;;;;;5.1;3.0;;;;;;;22.0;41.9;101940;;;;
2021/06/15 07:56:49;;;;;;;5.1;3.0;;;;;;;21.9;41.8;101940;;;;
2021/06/15 07:58:49;;;;;;;5.1;3.0;;;;;;;21.8;41.8;101940;;;;
2021/06/15 08:00:49;;;;;;;5.1;3.0;;;;;;;22.1;41.8;101940;;;;
2021/06/15 08:02:49;;;;;;;5.1;3.0;;;;;;;22.0;41.6;101940;;;;
2021/06/15 08:04:49;;;;;;;4.2;2.2;;;;;;;22.1;41.2;101940;;;;
2021/06/15 08:06:49;;;;;;;4.2;2.2;;;;;;;22.3;41.3;101940;;;;
2021/06/15 08:08:49;;;;;;;4.2;2.2;;;;;;;22.1;40.9;101940;;;;
2021/06/15 08:12:49;;;;;;;4.2;2.2;;;;;;;22.2;40.8;101930;;;;
2021/06/15 08:14:49;;;;;;;4.2;2.2;;;;;;;22.5;40.8;101930;;;;
2021/06/15 08:18:49;;;;;;;4.2;2.2;;;;;;;22.6;40.3;101930;;;;
2021/06/15 08:20:51;;;;;;;4.2;2.2;;;;;;;22.7;40.7;101930;;;;
2021/06/15 08:22:49;;;;;;;4.2;2.2;;;;;;;22.8;40.5;101930;;;;
2021/06/15 08:26:49;;;;;;;4.3;2.0;;;;;;;22.7;39.7;101930;;;;
2021/06/15 08:28:49;;;;;;;4.3;2.0;;;;;;;22.8;40.3;101930;;;;
2021/06/15 08:30:49;;;;;;;4.3;2.0;;;;;;;22.7;39.6;101940;;;;
2021/06/15 08:32:49;;;;;;;4.3;2.0;;;;;;;22.8;38.4;101940;;;;
2021/06/15 08:34:49;;;;;;;4.3;2.0;;;;;;;22.9;39.3;101930;;;;
2021/06/15 08:36:49;;;;;;;4.3;2.0;;;;;;;23.0;39.4;101940;;;;
2021/06/15 08:38:49;;;;;;;4.3;2.0;;;;;;;23.2;39.1;101940;;;;
2021/06/15 08:40:49;;;;;;;4.3;2.0;;;;;;;23.1;38.7;101940;;;;
2021/06/15 08:42:49;;;;;;;4.3;2.0;;;;;;;23.0;39.1;101940;;;;
2021/06/15 08:44:49;;;;;;;3.8;1.7;;;;;;;23.1;39.3;101940;;;;
2021/06/15 08:46:49;;;;;;;3.8;1.7;;;;;;;22.9;39.7;101930;;;;
2021/06/15 08:50:50;;;;;;;3.8;1.7;;;;;;;23.0;39.5;101930;;;;
2021/06/15 08:52:49;;;;;;;3.8;1.7;;;;;;;23.2;39.6;101930;;;;
2021/06/15 08:56:49;;;;;;;3.8;1.7;;;;;;;23.0;39.9;101920;;;;
2021/06/15 08:58:49;;;;;;;3.8;1.7;;;;;;;23.3;39.4;101920;;;;
2021/06/15 09:00:49;;;;;;;3.8;1.7;;;;;;;23.6;39.5;101920;;;;
2021/06/15 09:04:49;;;;;;;5.2;1.9;;;;;;;23.5;38.8;101920;;;;
2021/06/15 09:06:49;;;;;;;5.2;1.9;;;;;;;23.6;38.7;101930;;;;
2021/06/15 09:08:49;;;;;;;5.2;1.9;;;;;;;23.9;37.8;101930;;;;
2021/06/15 09:10:49;;;;;;;5.2;1.9;;;;;;;23.8;38.3;101930;;;;
2021/06/15 09:14:49;;;;;;;5.2;1.9;;;;;;;23.7;38.3;101920;;;;
2021/06/15 09:16:49;;;;;;;5.2;1.9;;;;;;;23.9;38.3;101920;;;;
2021/06/15 09:18:49;;;;;;;5.2;1.9;;;;;;;23.8;37.5;101920;;;;
2021/06/15 09:20:49;;;;;;;5.2;1.9;;;;;;;23.7;37.9;101920;;;;
2021/06/15 09:22:49;;;;;;;5.2;1.9;;;;;;;23.3;38.0;101920;;;;
2021/06/15 09:24:49;;;;;;;7.5;1.7;;;;;;;23.6;38.1;101920;;;;
2021/06/15 09:28:49;;;;;;;7.5;1.7;;;;;;;23.8;37.8;101920;;;;
2021/06/15 09:32:49;;;;;;;7.5;1.7;;;;;;;24.1;37.6;101920;;;;
2021/06/15 09:34:49;;;;;;;7.5;1.7;;;;;;;24.2;37.2;101920;;;;
2021/06/15 09:38:49;;;;;;;7.5;1.7;;;;;;;24.5;38.0;101920;;;;
2021/06/15 09:40:49;;;;;;;7.5;1.7;;;;;;;24.6;36.0;101920;;;;
2021/06/15 09:42:49;;;;;;;7.5;1.7;;;;;;;24.8;36.2;101920;;;;
2021/06/15 09:44:49;;;;;;;2.4;1.4;;;;;;;24.6;35.7;101910;;;;
2021/06/15 09:46:49;;;;;;;2.4;1.4;;;;;;;24.4;37.1;101920;;;;
2021/06/15 09:48:49;;;;;;;2.4;1.4;;;;;;;24.7;36.6;101920;;;;
2021/06/15 09:50:49;;;;;;;2.4;1.4;;;;;;;24.9;36.4;101920;;;;
2021/06/15 09:52:49;;;;;;;2.4;1.4;;;;;;;24.7;36.1;101920;;;;
2021/06/15 09:54:49;;;;;;;2.4;1.4;;;;;;;24.8;36.6;101920;;;;
2021/06/15 09:56:49;;;;;;;2.4;1.4;;;;;;;24.6;35.7;101910;;;;
2021/06/15 09:59:00;;;;;;;2.4;1.4;;;;;;;24.5;35.1;101910;;;;
2021/06/15 10:04:50;;;;;;;3.1;1.3;;;;;;;24.8;35.6;101910;;;;
2021/06/15 10:08:52;;;;;;;3.1;1.3;;;;;;;24.9;36.1;101910;;;;
2021/06/15 10:10:50;;;;;;;3.1;1.3;;;;;;;25.3;35.8;101910;;;;
2021/06/15 10:12:49;;;;;;;3.1;1.3;;;;;;;25.5;36.3;101910;;;;
2021/06/15 10:14:49;;;;;;;3.1;1.3;;;;;;;25.4;34.7;101920;;;;
2021/06/15 10:16:49;;;;;;;3.1;1.3;;;;;;;25.5;34.7;101920;;;;
2021/06/15 10:18:49;;;;;;;3.1;1.3;;;;;;;25.7;34.4;101910;;;;
2021/06/15 10:22:49;;;;;;;3.1;1.3;;;;;;;25.6;35.7;101910;;;;
2021/06/15 10:24:49;;;;;;;2.0;1.1;;;;;;;26.1;35.5;101910;;;;
2021/06/15 10:26:49;;;;;;;2.0;1.1;;;;;;;26.0;35.1;101910;;;;
2021/06/15 10:28:49;;;;;;;2.0;1.1;;;;;;;26.2;34.7;101910;;;;
2021/06/15 10:30:49;;;;;;;2.0;1.1;;;;;;;26.3;35.1;101910;;;;
2021/06/15 10:34:49;;;;;;;2.0;1.1;;;;;;;26.1;35.5;101890;;;;
2021/06/15 10:36:50;;;;;;;2.0;1.1;;;;;;;25.9;34.3;101900;;;;
2021/06/15 10:38:49;;;;;;;2.0;1.1;;;;;;;26.1;35.4;101900;;;;
2021/06/15 10:40:49;;;;;;;2.0;1.1;;;;;;;26.2;34.7;101900;;;;
2021/06/15 10:42:49;;;;;;;2.0;1.1;;;;;;;26.3;35.3;101900;;;;
2021/06/15 10:44:49;;;;;;;2.3;1.3;;;;;;;26.5;34.5;101900;;;;
2021/06/15 10:46:49;;;;;;;2.3;1.3;;;;;;;26.4;33.2;101900;;;;
2021/06/15 10:48:49;;;;;;;2.3;1.3;;;;;;;26.5;32.7;101900;;;;
2021/06/15 10:50:49;;;;;;;2.3;1.3;;;;;;;26.7;33.7;101900;;;;
2021/06/15 10:52:49;;;;;;;2.3;1.3;;;;;;;26.4;34.8;101900;;;;
2021/06/15 10:54:49;;;;;;;2.3;1.3;;;;;;;26.6;36.2;101900;;;;
2021/06/15 10:56:49;;;;;;;2.3;1.3;;;;;;;26.7;35.0;101890;;;;
2021/06/15 10:58:49;;;;;;;2.3;1.3;;;;;;;26.8;35.8;101890;;;;
2021/06/15 11:00:51;;;;;;;2.3;1.3;;;;;;;26.5;36.2;101890;;;;
2021/06/15 11:02:49;;;;;;;2.3;1.3;;;;;;;26.2;36.1;101890;;;;
2021/06/15 11:04:49;;;;;;;5.2;2.3;;;;;;;26.6;37.2;101890;;;;
2021/06/15 11:08:49;;;;;;;5.2;2.3;;;;;;;26.1;38.0;101880;;;;
2021/06/15 11:10:49;;;;;;;5.2;2.3;;;;;;;25.9;37.5;101880;;;;
2021/06/15 11:14:52;;;;;;;5.2;2.3;;;;;;;25.5;37.0;101880;;;;
2021/06/15 11:16:49;;;;;;;5.2;2.3;;;;;;;25.7;38.4;101880;;;;
2021/06/15 11:20:49;;;;;;;5.2;2.3;;;;;;;25.9;37.9;101870;;;;
2021/06/15 11:22:50;;;;;;;5.2;2.3;;;;;;;25.8;38.4;101870;;;;
2021/06/15 11:24:51;;;;;;;4.0;2.3;;;;;;;26.2;38.5;101870;;;;
2021/06/15 11:26:49;;;;;;;4.0;2.3;;;;;;;26.1;37.0;101870;;;;
2021/06/15 11:28:49;;;;;;;4.0;2.3;;;;;;;26.3;38.0;101880;;;;
2021/06/15 11:30:49;;;;;;;4.0;2.3;;;;;;;26.5;36.5;101880;;;;
2021/06/15 11:36:49;;;;;;;4.0;2.3;;;;;;;26.1;37.4;101880;;;;
2021/06/15 11:38:49;;;;;;;4.0;2.3;;;;;;;25.9;36.0;101870;;;;
2021/06/15 11:40:49;;;;;;;4.0;2.3;;;;;;;26.1;36.3;101870;;;;
2021/06/15 11:42:49;;;;;;;4.0;2.3;;;;;;;26.3;37.0;101880;;;;
2021/06/15 11:44:52;;;;;;;2.6;1.3;;;;;;;26.2;34.8;101870;;;;
2021/06/15 11:46:50;;;;;;;2.6;1.3;;;;;;;26.3;35.8;101870;;;;
2021/06/15 11:48:49;;;;;;;2.6;1.3;;;;;;;26.4;34.8;101880;;;;
2021/06/15 11:52:49;;;;;;;2.6;1.3;;;;;;;26.6;37.1;101870;;;;
2021/06/15 11:54:49;;;;;;;2.6;1.3;;;;;;;26.8;35.7;101870;;;;
2021/06/15 11:56:49;;;;;;;2.6;1.3;;;;;;;26.7;35.2;101870;;;;
2021/06/15 11:58:55;;;;;;;2.6;1.3;;;;;;;26.8;33.9;101870;;;;
2021/06/15 12:00:49;;;;;;;2.6;1.3;;;;;;;27.0;34.2;101870;;;;
2021/06/15 12:02:49;;;;;;;2.6;1.3;;;;;;;27.2;36.2;101870;;;;
2021/06/15 12:04:49;;;;;;;2.3;1.2;;;;;;;27.3;34.6;101870;;;;
2021/06/15 12:06:49;;;;;;;2.3;1.2;;;;;;;27.1;34.6;101870;;;;
2021/06/15 12:10:49;;;;;;;2.3;1.2;;;;;;;26.9;33.0;101860;;;;
2021/06/15 12:12:49;;;;;;;2.3;1.2;;;;;;;27.3;35.2;101860;;;;
2021/06/15 12:16:49;;;;;;;2.3;1.2;;;;;;;27.5;35.3;101870;;;;
2021/06/15 12:18:49;;;;;;;2.3;1.2;;;;;;;27.6;33.9;101860;;;;
2021/06/15 12:20:50;;;;;;;2.3;1.2;;;;;;;27.3;35.5;101860;;;;
2021/06/15 12:22:49;;;;;;;2.3;1.2;;;;;;;27.4;33.8;101850;;;;
2021/06/15 12:24:49;;;;;;;4.1;1.7;;;;;;;27.2;35.5;101860;;;;
2021/06/15 12:32:49;;;;;;;4.1;1.7;;;;;;;27.5;35.6;101850;;;;
2021/06/15 12:34:49;;;;;;;4.1;1.7;;;;;;;27.4;34.4;101850;;;;
2021/06/15 12:36:49;;;;;;;4.1;1.7;;;;;;;27.3;35.1;101850;;;;
2021/06/15 12:38:49;;;;;;;4.1;1.7;;;;;;;27.4;35.4;101850;;;;
2021/06/15 12:40:49;;;;;;;4.1;1.7;;;;;;;27.3;35.2;101850;;;;
2021/06/15 12:42:49;;;;;;;4.1;1.7;;;;;;;27.6;36.3;101850;;;;
2021/06/15 12:44:49;;;;;;;4.7;2.0;;;;;;;27.8;34.0;101850;;;;
2021/06/15 12:46:49;;;;;;;4.7;2.0;;;;;;;27.9;33.6;101840;;;;
2021/06/15 12:48:49;;;;;;;4.7;2.0;;;;;;;28.0;33.4;101840;;;;
2021/06/15 12:52:50;;;;;;;4.7;2.0;;;;;;;27.8;35.8;101840;;;;
2021/06/15 12:54:50;;;;;;;4.7;2.0;;;;;;;28.0;36.7;101840;;;;
2021/06/15 12:56:49;;;;;;;4.7;2.0;;;;;;;27.9;34.0;101840;;;;
2021/06/15 12:58:49;;;;;;;4.7;2.0;;;;;;;28.1;36.1;101840;;;;
2021/06/15 13:00:49;;;;;;;4.7;2.0;;;;;;;27.8;34.4;101830;;;;
2021/06/15 13:02:49;;;;;;;4.7;2.0;;;;;;;27.6;33.4;101830;;;;
2021/06/15 13:06:49;;;;;;;5.2;1.9;;;;;;;27.8;35.3;101830;;;;
2021/06/15 13:08:49;;;;;;;5.2;1.9;;;;;;;28.0;36.7;101830;;;;
2021/06/15 13:10:49;;;;;;;5.2;1.9;;;;;;;27.8;36.4;101820;;;;
2021/06/15 13:12:49;;;;;;;5.2;1.9;;;;;;;28.0;37.6;101820;;;;
2021/06/15 13:18:49;;;;;;;5.2;1.9;;;;;;;27.7;34.0;101820;;;;
2021/06/15 13:20:49;;;;;;;5.2;1.9;;;;;;;27.8;32.6;101820;;;;
2021/06/15 13:22:49;;;;;;;5.2;1.9;;;;;;;28.1;35.4;101820;;;;
2021/06/15 13:24:49;;;;;;;5.5;1.8;;;;;;;28.0;34.5;101820;;;;
2021/06/15 13:26:50;;;;;;;5.5;1.8;;;;;;;28.2;35.0;101820;;;;
2021/06/15 13:30:49;;;;;;;5.5;1.8;;;;;;;28.4;35.4;101810;;;;
2021/06/15 13:32:49;;;;;;;5.5;1.8;;;;;;;28.6;35.3;101820;;;;
2021/06/15 13:34:49;;;;;;;5.5;1.8;;;;;;;28.8;34.7;101820;;;;
2021/06/15 13:36:49;;;;;;;5.5;1.8;;;;;;;28.6;33.4;101810;;;;
2021/06/15 13:38:49;;;;;;;5.5;1.8;;;;;;;28.8;32.9;101810;;;;
2021/06/15 13:40:51;;;;;;;5.5;1.8;;;;;;;29.0;33.2;101810;;;;
2021/06/15 13:44:49;;;;;;;3.8;1.8;;;;;;;29.2;32.4;101800;;;;
2021/06/15 13:46:49;;;;;;;3.8;1.8;;;;;;;29.1;30.3;101800;;;;
2021/06/15 13:48:49;;;;;;;3.8;1.8;;;;;;;29.2;33.8;101800;;;;
2021/06/15 13:50:49;;;;;;;3.8;1.8;;;;;;;29.4;30.6;101790;;;;
2021/06/15 13:52:49;;;;;;;3.8;1.8;;;;;;;29.3;32.8;101790;;;;
2021/06/15 13:54:49;;;;;;;3.8;1.8;;;;;;;29.2;34.6;101790;;;;
2021/06/15 13:58:49;;;;;;;3.8;1.8;;;;;;;29.5;33.5;101780;;;;
2021/06/15 14:00:49;;;;;;;3.8;1.8;;;;;;;29.4;32.2;101780;;;;
2021/06/15 14:02:49;;;;;;;3.8;1.8;;;;;;;29.6;33.5;101780;;;;
2021/06/15 14:04:49;;;;;;;3.8;1.7;;;;;;;29.7;32.5;101780;;;;
2021/06/15 14:06:49;;;;;;;3.8;1.7;;;;;;;29.6;31.1;101780;;;;
2021/06/15 14:08:49;;;;;;;3.8;1.7;;;;;;;30.0;32.1;101780;;;;
2021/06/15 14:10:49;;;;;;;3.8;1.7;;;;;;;30.2;32.3;101780;;;;
2021/06/15 14:16:49;;;;;;;3.8;1.7;;;;;;;30.3;31.4;101780;;;;
2021/06/15 14:18:49;;;;;;;3.8;1.7;;;;;;;30.2;29.3;101770;;;;
2021/06/15 14:20:49;;;;;;;3.8;1.7;;;;;;;30.0;30.4;101780;;;;
2021/06/15 14:24:49;;;;;;;4.8;1.6;;;;;;;30.5;28.3;101770;;;;
2021/06/15 14:26:49;;;;;;;4.8;1.6;;;;;;;30.6;29.8;101770;;;;
2021/06/15 14:28:49;;;;;;;4.8;1.6;;;;;;;30.9;29.8;101760;;;;
2021/06/15 14:30:49;;;;;;;4.8;1.6;;;;;;;30.5;30.7;101770;;;;
2021/06/15 14:32:49;;;;;;;4.8;1.6;;;;;;;30.6;31.2;101770;;;;
2021/06/15 14:36:49;;;;;;;4.8;1.6;;;;;;;30.0;29.1;101760;;;;
2021/06/15 14:38:50;;;;;;;4.8;1.6;;;;;;;30.2;30.3;101760;;;;
2021/06/15 14:40:49;;;;;;;4.8;1.6;;;;;;;30.5;28.6;101760;;;;
2021/06/15 14:42:49;;;;;;;4.8;1.6;;;;;;;30.9;28.4;101760;;;;
2021/06/15 14:44:49;;;;;;;4.6;2.3;;;;;;;30.8;29.9;101750;;;;
2021/06/15 14:46:49;;;;;;;4.6;2.3;;;;;;;30.5;29.1;101760;;;;
2021/06/15 14:48:49;;;;;;;4.6;2.3;;;;;;;30.6;30.3;101760;;;;
2021/06/15 14:50:49;;;;;;;4.6;2.3;;;;;;;30.4;30.9;101750;;;;
2021/06/15 14:52:49;;;;;;;4.6;2.3;;;;;;;30.1;30.9;101750;;;;
2021/06/15 14:56:49;;;;;;;4.6;2.3;;;;;;;30.4;30.4;101750;;;;
2021/06/15 14:58:50;;;;;;;4.6;2.3;;;;;;;30.3;30.5;101750;;;;
2021/06/15 15:00:50;;;;;;;4.6;2.3;;;;;;;30.7;31.7;101750;;;;
2021/06/15 15:04:49;;;;;;;4.3;2.1;;;;;;;30.6;28.8;101750;;;;
2021/06/15 15:06:49;;;;;;;4.3;2.1;;;;;;;30.2;27.9;101750;;;;
2021/06/15 15:08:50;;;;;;;4.3;2.1;;;;;;;30.4;28.5;101750;;;;
2021/06/15 15:10:49;;;;;;;4.3;2.1;;;;;;;30.7;27.5;101740;;;;
2021/06/15 15:12:49;;;;;;;4.3;2.1;;;;;;;31.3;27.0;101730;;;;
2021/06/15 15:16:51;;;;;;;4.3;2.1;;;;;;;31.5;26.8;101730;;;;
2021/06/15 15:18:49;;;;;;;4.3;2.1;;;;;;;31.8;25.9;101730;;;;
2021/06/15 15:20:54;;;;;;;4.3;2.1;;;;;;;31.3;26.6;101730;;;;
2021/06/15 15:22:49;;;;;;;4.3;2.1;;;;;;;31.4;25.5;101730;;;;
2021/06/15 15:24:49;;;;;;;5.7;2.0;;;;;;;32.1;25.8;101730;;;;
2021/06/15 15:26:52;;;;;;;5.7;2.0;;;;;;;31.9;26.5;101730;;;;
2021/06/15 15:28:49;;;;;;;5.7;2.0;;;;;;;31.7;26.1;101730;;;;
2021/06/15 15:30:49;;;;;;;5.7;2.0;;;;;;;31.5;25.5;101730;;;;
2021/06/15 15:32:49;;;;;;;5.7;2.0;;;;;;;30.8;25.4;101720;;;;
2021/06/15 15:34:49;;;;;;;5.7;2.0;;;;;;;31.4;25.8;101720;;;;
2021/06/15 15:36:49;;;;;;;5.7;2.0;;;;;;;31.6;26.7;101720;;;;
2021/06/15 15:40:49;;;;;;;5.7;2.0;;;;;;;31.7;25.2;101720;;;;
2021/06/15 15:42:49;;;;;;;5.7;2.0;;;;;;;31.8;25.5;101720;;;;
2021/06/15 15:44:49;;;;;;;5.9;2.2;;;;;;;32.5;26.2;101720;;;;
2021/06/15 15:46:51;;;;;;;5.9;2.2;;;;;;;32.6;25.9;101720;;;;
2021/06/15 15:48:50;;;;;;;5.9;2.2;;;;;;;32.3;25.5;101720;;;;
2021/06/15 15:50:49;;;;;;;5.9;2.2;;;;;;;32.0;25.3;101720;;;;
2021/06/15 15:52:49;;;;;;;5.9;2.2;;;;;;;31.8;25.8;101720;;;;
2021/06/15 15:54:51;;;;;;;5.9;2.2;;;;;;;31.6;26.0;101720;;;;
2021/06/15 15:56:49;;;;;;;5.9;2.2;;;;;;;31.3;25.8;101710;;;;
2021/06/15 15:58:49;;;;;;;5.9;2.2;;;;;;;31.2;26.5;101710;;;;
2021/06/15 16:00:49;;;;;;;5.9;2.2;;;;;;;31.3;26.7;101710;;;;
2021/06/15 16:02:49;;;;;;;5.9;2.2;;;;;;;31.1;25.9;101710;;;;
2021/06/15 16:04:49;;;;;;;3.7;1.8;;;;;;;31.0;25.7;101710;;;;
2021/06/15 16:06:49;;;;;;;3.7;1.8;;;;;;;30.8;26.4;101710;;;;
2021/06/15 16:08:49;;;;;;;3.7;1.8;;;;;;;30.6;26.8;101700;;;;
2021/06/15 16:10:49;;;;;;;3.7;1.8;;;;;;;30.5;26.8;101700;;;;
2021/06/15 16:12:49;;;;;;;3.7;1.8;;;;;;;30.6;27.4;101700;;;;
2021/06/15 16:14:49;;;;;;;3.7;1.8;;;;;;;30.5;27.7;101700;;;;
2021/06/15 16:16:49;;;;;;;3.7;1.8;;;;;;;30.6;27.2;101700;;;;
2021/06/15 16:20:49;;;;;;;3.7;1.8;;;;;;;30.7;26.3;101690;;;;
2021/06/15 16:22:49;;;;;;;3.7;1.8;;;;;;;31.0;27.1;101700;;;;
2021/06/15 16:24:49;;;;;;;4.1;1.9;;;;;;;31.7;27.2;101700;;;;
2021/06/15 16:26:49;;;;;;;4.1;1.9;;;;;;;31.9;24.5;101700;;;;
2021/06/15 16:28:50;;;;;;;4.1;1.9;;;;;;;32.7;26.3;101690;;;;
2021/06/15 16:30:49;;;;;;;4.1;1.9;;;;;;;31.9;24.8;101700;;;;
2021/06/15 16:32:50;;;;;;;4.1;1.9;;;;;;;32.0;25.4;101690;;;;
2021/06/15 16:34:49;;;;;;;4.1;1.9;;;;;;;32.3;23.4;101690;;;;
2021/06/15 16:36:49;;;;;;;4.1;1.9;;;;;;;32.7;25.6;101680;;;;
2021/06/15 16:38:49;;;;;;;4.1;1.9;;;;;;;33.0;25.7;101680;;;;
2021/06/15 16:40:49;;;;;;;4.1;1.9;;;;;;;33.2;24.2;101680;;;;
2021/06/15 16:42:49;;;;;;;4.1;1.9;;;;;;;32.9;23.7;101680;;;;
2021/06/15 16:44:49;;;;;;;4.6;1.7;;;;;;;32.8;23.3;101680;;;;
2021/06/15 16:46:49;;;;;;;4.6;1.7;;;;;;;32.7;22.9;101680;;;;
2021/06/15 16:50:50;;;;;;;4.6;1.7;;;;;;;33.3;23.7;101670;;;;
2021/06/15 16:52:49;;;;;;;4.6;1.7;;;;;;;33.7;24.4;101670;;;;
2021/06/15 16:54:49;;;;;;;4.6;1.7;;;;;;;33.5;23.7;101670;;;;
2021/06/15 16:58:49;;;;;;;4.6;1.7;;;;;;;33.6;24.0;101670;;;;
2021/06/15 17:00:49;;;;;;;4.6;1.7;;;;;;;34.1;23.7;101670;;;;
2021/06/15 17:02:49;;;;;;;4.6;1.7;;;;;;;33.4;23.2;101670;;;;
2021/06/15 17:04:49;;;;;;;5.7;1.7;;;;;;;32.7;22.8;101670;;;;
2021/06/15 17:08:49;;;;;;;5.7;1.7;;;;;;;32.8;24.0;101680;;;;
2021/06/15 17:10:49;;;;;;;5.7;1.7;;;;;;;33.1;23.6;101680;;;;
2021/06/15 17:12:49;;;;;;;5.7;1.7;;;;;;;32.9;23.6;101680;;;;
2021/06/15 17:14:49;;;;;;;5.7;1.7;;;;;;;33.5;23.2;101680;;;;
2021/06/15 17:16:49;;;;;;;5.7;1.7;;;;;;;33.7;23.4;101680;;;;
2021/06/15 17:18:49;;;;;;;5.7;1.7;;;;;;;33.3;23.7;101670;;;;
2021/06/15 17:20:49;;;;;;;5.7;1.7;;;;;;;33.1;23.6;101680;;;;
2021/06/15 17:22:49;;;;;;;5.7;1.7;;;;;;;32.9;22.6;101680;;;;
2021/06/15 17:26:49;;;;;;;4.5;1.5;;;;;;;32.7;23.7;101670;;;;
2021/06/15 17:28:49;;;;;;;4.5;1.5;;;;;;;32.6;24.0;101680;;;;
2021/06/15 17:30:49;;;;;;;4.5;1.5;;;;;;;32.9;23.9;101670;;;;